MDT,Max TemperatureF,Mean TemperatureF,Min TemperatureF,Max Dew PointF,MeanDew PointF,Min DewpointF,Max Humidity, Mean Humidity, Min Humidity, Max Sea Level PressureIn, Mean Sea Level PressureIn, Min Sea Level PressureIn, Max VisibilityMiles, Mean VisibilityMiles, Min VisibilityMiles, Max Wind SpeedMPH, Mean Wind SpeedMPH, Max Gust SpeedMPH,PrecipitationIn, CloudCover, Events, WindDirDegrees
2013-7-1,90,75,59,49,46,44,60,42,24,30.12,30.06,30.02,10,10,10,14,5,25,0.00,1,,328
2013-7-2,91,75,59,47,41,32,51,34,16,30.08,30.00,29.90,10,10,10,18,6,23,0.00,0,,298
2013-7-3,91,74,56,50,43,34,55,37,19,29.91,29.85,29.78,10,9,6,15,4,20,T,1,,268
2013-7-4,91,76,60,58,50,43,78,49,19,30.05,29.84,29.70,10,8,1,24,6,30,0.15,2,Rain,217
2013-7-5,88,72,56,57,52,41,86,53,20,29.84,29.74,29.59,10,9,5,25,5,32,0.00,1,,172
2013-7-6,90,73,56,52,46,38,77,47,17,29.96,29.81,29.73,10,10,10,35,7,49,T,2,Rain,313
2013-7-7,91,73,54,54,47,35,86,51,16,29.93,29.87,29.78,10,10,8,36,7,46,T,1,Rain,309
2013-7-8,91,75,58,50,45,34,67,41,15,30.11,29.91,29.83,10,9,2,37,8,47,0.03,1,Rain,211
2013-7-9,93,75,57,44,39,32,51,32,12,30.04,29.96,29.90,10,10,9,17,6,22,0.00,0,,311
2013-7-10,96,79,61,50,40,27,52,31,9,30.07,29.94,29.81,10,10,9,17,6,21,0.00,0,,247
2013-7-11,95,78,61,45,37,30,40,26,12,29.94,29.75,29.63,10,10,8,30,7,38,0.00,0,,260
2013-7-12,85,74,62,55,47,36,78,51,23,29.87,29.82,29.76,10,10,8,16,5,20,0.03,5,Rain,352
2013-7-13,86,73,59,45,42,39,46,33,20,29.95,29.89,29.84,10,10,9,26,6,33,0.00,1,,297
2013-7-14,86,73,59,52,49,42,75,52,29,30.15,30.02,29.93,10,10,10,17,5,22,0.02,2,,320
2013-7-15,93,75,56,55,45,36,67,41,14,29.98,29.88,29.75,10,10,9,15,5,18,0.00,0,,286
2013-7-16,93,78,62,51,47,40,53,37,20,30.06,29.92,29.82,10,10,10,26,8,35,0.00,1,,8
2013-7-17,91,76,60,54,50,45,69,45,21,30.18,30.01,29.91,10,10,6,29,8,51,0.04,2,Rain,277
2013-7-18,95,79,62,53,45,31,63,37,11,30.04,29.95,29.85,10,10,10,22,5,29,0.00,1,,299
2013-7-19,94,78,62,51,46,37,53,34,14,30.00,29.90,29.74,10,10,9,15,5,22,T,0,,292
2013-7-20,96,78,59,40,36,28,46,28,10,29.88,29.79,29.66,10,10,10,16,7,18,0.00,0,,281
2013-7-21,96,78,59,41,32,20,40,24,7,29.79,29.71,29.64,10,10,10,18,7,24,0.00,0,,309
2013-7-22,97,78,59,42,27,11,42,23,4,29.82,29.77,29.70,10,10,5,22,8,28,0.00,0,,295
2013-7-23,90,75,60,37,29,19,32,23,13,30.16,29.95,29.82,10,7,2,12,5,20,0.00,0,,277
2013-7-24,89,76,63,47,42,30,38,30,22,30.11,29.95,29.84,10,8,2,33,8,41,T,2,Rain,263
2013-7-25,84,72,59,47,44,40,56,42,27,30.23,30.02,29.87,10,10,9,21,6,27,0.00,1,,163
2013-7-26,93,74,55,45,41,36,55,35,14,30.12,30.02,29.93,10,10,9,13,6,20,0.00,0,,277
2013-7-27,82,70,57,51,44,39,55,41,26,29.96,29.90,29.83,10,9,8,24,6,29,T,2,Rain,269
2013-7-28,88,71,54,47,43,39,62,41,20,29.84,29.77,29.66,10,10,8,20,5,33,0.00,1,,265
2013-7-29,82,66,50,46,42,34,64,42,19,30.17,29.94,29.82,10,10,6,45,9,56,T,1,Rain,276
2013-7-30,89,71,53,48,42,27,71,41,11,30.21,30.05,29.95,10,10,9,25,7,33,T,1,,307
2013-7-31,83,69,54,52,46,42,67,46,24,30.21,30.11,29.98,10,10,8,14,6,17,0.01,1,Rain,295